Time;durP1;ratioP1;P1;durP2;ratioP2;P2;SDS_P1;SDS_P2;PMS_P1;PMS_P2;Temp;Humidity;BMP_temperature;BMP_pressure;BME280_temperature;BME280_humidity;BME280_pressure;Samples;Min_cycle;Max_cycle;Signal;HPM_P1;HPM_P2
2022/04/01 04:05:13;;;;;;;18.52;10.73;;;;;;;9.34;100.00;97913.41;6460660;27;20092;-85
2022/04/01 04:08:19;;;;;;;16.65;10.20;;;;;;;9.32;100.00;97917.12;6579923;27;33603;-86
2022/04/01 04:11:26;;;;;;;17.67;10.02;;;;;;;9.34;100.00;97910.75;6580517;27;33972;-86
2022/04/01 04:14:31;;;;;;;21.02;10.32;;;;;;;9.32;100.00;97911.75;6580067;27;33652;-86
2022/04/01 04:17:37;;;;;;;18.00;9.90;;;;;;;9.32;100.00;97909.09;6580257;27;34573;-86
2022/04/01 04:20:49;;;;;;;15.15;8.93;;;;;;;9.35;100.00;97907.81;6579813;27;33924;-86
2022/04/01 04:23:58;;;;;;;18.65;9.90;;;;;;;9.36;100.00;97917.50;6580745;27;34679;-86
2022/04/01 04:27:12;;;;;;;20.08;10.63;;;;;;;9.38;100.00;97915.41;6580549;27;35072;-85
2022/04/01 04:30:16;;;;;;;16.73;9.90;;;;;;;9.37;100.00;97911.09;6582945;27;33990;-86
2022/04/01 04:33:28;;;;;;;15.80;9.75;;;;;;;9.44;100.00;97893.00;6579813;27;33895;-86
2022/04/01 04:36:38;;;;;;;17.35;10.27;;;;;;;9.40;100.00;97883.78;6579373;27;33759;-85
2022/04/01 04:39:43;;;;;;;;;;;;;;;9.41;100.00;97877.34;6584872;27;34639;-86
2022/04/01 04:42:47;;;;;;;18.77;11.30;;;;;;;9.45;100.00;97875.03;6585343;27;34309;-86
2022/04/01 04:45:52;;;;;;;17.45;9.95;;;;;;;9.45;100.00;97877.72;6579430;27;33661;-86
2022/04/01 04:48:55;;;;;;;19.62;11.38;;;;;;;9.45;100.00;97875.84;6579429;27;33832;-90
2022/04/01 04:51:59;;;;;;;18.40;11.48;;;;;;;9.42;100.00;97888.91;6579939;27;34168;-90
2022/04/01 04:55:06;;;;;;;19.20;11.68;;;;;;;9.43;100.00;97893.22;6581257;27;35317;-89
2022/04/01 04:58:17;;;;;;;20.33;11.30;;;;;;;9.41;100.00;97892.63;6580715;27;33936;-86
2022/04/01 05:01:38;;;;;;;18.45;10.30;;;;;;;9.50;100.00;97894.75;6580073;27;34343;-86
2022/04/01 05:04:53;;;;;;;19.35;10.80;;;;;;;9.48;100.00;97898.75;6579907;27;34051;-86
2022/04/01 05:08:08;;;;;;;17.02;9.98;;;;;;;9.44;100.00;97913.66;6582348;27;34238;-86
2022/04/01 05:11:23;;;;;;;16.83;11.15;;;;;;;9.50;100.00;97910.03;6582138;27;33434;-86
2022/04/01 05:14:39;;;;;;;18.98;10.85;;;;;;;9.51;100.00;97909.00;6581654;26;34083;-85
2022/04/01 05:17:56;;;;;;;20.55;10.93;;;;;;;9.47;100.00;97905.94;6579374;27;33633;-86
2022/04/01 05:21:02;;;;;;;17.23;9.93;;;;;;;9.53;100.00;97909.59;6580524;27;33837;-86
2022/04/01 05:24:08;;;;;;;16.83;9.55;;;;;;;9.54;100.00;97906.69;6578084;27;33950;-85
2022/04/01 05:27:23;;;;;;;15.65;9.70;;;;;;;9.53;100.00;97917.63;6579588;27;34010;-85
2022/04/01 05:30:30;;;;;;;17.23;9.57;;;;;;;9.41;100.00;97922.19;6580574;27;34076;-85
2022/04/01 05:34:09;;;;;;;12.52;8.68;;;;;;;9.41;100.00;97925.69;6576260;27;33921;-85
2022/04/01 05:37:18;;;;;;;17.62;9.70;;;;;;;9.54;100.00;97917.41;6598771;27;34501;-86
2022/04/01 05:40:22;;;;;;;17.30;9.48;;;;;;;9.50;100.00;97916.22;6597725;26;34284;-86
2022/04/01 05:43:27;;;;;;;15.57;9.32;;;;;;;9.54;100.00;97920.09;6594022;27;34341;-86
2022/04/01 05:46:37;;;;;;;17.40;9.80;;;;;;;9.55;100.00;97920.91;6577602;27;155888;-86
2022/04/01 05:49:44;;;;;;;15.48;9.23;;;;;;;9.50;100.00;97920.78;6567372;26;34420;-85
2022/04/01 05:52:49;;;;;;;15.90;9.20;;;;;;;9.41;100.00;97917.63;6589549;27;33937;-85
2022/04/01 05:55:54;;;;;;;17.27;9.25;;;;;;;9.42;100.00;97908.53;6589934;27;34416;-85
2022/04/01 05:58:57;;;;;;;15.80;8.60;;;;;;;9.39;100.00;97910.84;6599084;27;34372;-85
2022/04/01 06:02:34;;;;;;;13.90;8.20;;;;;;;9.40;100.00;97915.19;6601249;26;35435;-85
2022/04/01 06:06:09;;;;;;;14.23;8.65;;;;;;;9.37;100.00;97908.41;6591329;26;35503;-85
2022/04/01 06:09:31;;;;;;;13.10;8.43;;;;;;;9.30;100.00;97913.88;6560927;27;34356;-86
2022/04/01 06:12:43;;;;;;;15.13;8.57;;;;;;;9.29;100.00;97901.47;6578245;27;34228;-90
2022/04/01 06:15:52;;;;;;;13.27;8.23;;;;;;;9.29;100.00;97914.09;6577989;27;33865;-86
2022/04/01 06:19:14;;;;;;;17.05;9.23;;;;;;;9.34;100.00;97916.09;6578540;27;34521;-86
2022/04/01 06:22:20;;;;;;;12.00;7.75;;;;;;;9.38;100.00;97922.63;6578038;27;34987;-86
2022/04/01 06:25:30;;;;;;;13.88;7.95;;;;;;;9.40;100.00;97915.19;6580239;27;33970;-86
2022/04/01 06:28:45;;;;;;;14.05;8.50;;;;;;;9.35;100.00;97910.50;6585619;27;34327;-86
2022/04/01 06:31:53;;;;;;;16.30;9.23;;;;;;;9.34;100.00;97916.09;6596558;26;33761;-86
2022/04/01 06:35:04;;;;;;;12.45;8.63;;;;;;;9.36;100.00;97917.50;6596667;26;35420;-86
2022/04/01 06:38:13;;;;;;;12.98;8.85;;;;;;;9.40;100.00;97926.72;6581165;27;34310;-86
2022/04/01 06:41:23;;;;;;;13.23;8.60;;;;;;;9.39;100.00;97924.25;6580663;27;35438;-86
2022/04/01 06:44:26;;;;;;;12.73;8.05;;;;;;;9.35;100.00;97918.53;6581260;27;33993;-86
2022/04/01 06:47:34;;;;;;;14.43;9.68;;;;;;;9.34;100.00;97916.09;6580809;27;34692;-85
2022/04/01 06:50:37;;;;;;;13.65;7.93;;;;;;;9.41;100.00;97917.63;6580948;27;33900;-85
2022/04/01 06:53:43;;;;;;;15.65;9.52;;;;;;;9.46;100.00;97912.37;6559233;27;33418;-85
2022/04/01 06:56:49;;;;;;;16.62;9.80;;;;;;;9.49;100.00;97921.84;6569587;27;34415;-86
2022/04/01 06:59:52;;;;;;;14.73;9.68;;;;;;;9.59;100.00;97921.28;6589059;27;34480;-85
2022/04/01 07:02:55;;;;;;;13.62;8.48;;;;;;;9.66;100.00;97930.88;6583305;27;34267;-85
2022/04/01 07:05:58;;;;;;;13.62;7.68;;;;;;;9.64;100.00;97927.59;6580383;27;33946;-86
2022/04/01 07:09:01;;;;;;;10.48;6.00;;;;;;;9.60;100.00;97934.47;6580496;27;33732;-85
2022/04/01 07:12:05;;;;;;;10.88;5.65;;;;;;;9.57;100.00;97934.94;6580676;27;34930;-85
2022/04/01 07:15:10;;;;;;;9.55;5.60;;;;;;;9.50;100.00;97940.41;6579371;27;33972;-85
2022/04/01 07:18:15;;;;;;;6.30;4.50;;;;;;;9.53;100.00;97929.22;6580786;27;33953;-85
2022/04/01 07:21:18;;;;;;;8.07;4.93;;;;;;;9.55;100.00;97928.97;6580320;27;35208;-88
2022/04/01 07:24:21;;;;;;;7.50;4.87;;;;;;;9.53;100.00;97928.37;6580570;27;35240;-90
2022/04/01 07:27:24;;;;;;;10.95;5.12;;;;;;;9.52;100.00;97929.44;6580232;27;33862;-89
2022/04/01 07:30:27;;;;;;;15.82;5.50;;;;;;;9.48;100.00;97925.59;6579709;27;35289;-89
2022/04/01 07:33:30;;;;;;;8.48;4.87;;;;;;;9.53;100.00;97931.06;6578371;27;33931;-85
2022/04/01 07:36:33;;;;;;;8.82;5.32;;;;;;;9.51;100.00;97933.19;6577790;27;33945;-85
2022/04/01 07:39:37;;;;;;;10.63;4.90;;;;;;;9.45;100.00;97932.25;6579017;27;33925;-85
2022/04/01 07:42:40;;;;;;;7.10;4.40;;;;;;;9.53;100.00;97923.00;6580169;27;34366;-85
2022/04/01 07:45:45;;;;;;;6.50;4.25;;;;;;;9.58;100.00;97916.97;6578362;27;34174;-86
2022/04/01 07:48:48;;;;;;;6.15;3.55;;;;;;;9.64;100.00;97932.97;6578375;27;34036;-85
2022/04/01 07:51:51;;;;;;;4.07;3.28;;;;;;;9.65;100.00;97931.94;6578945;27;35050;-86
2022/04/01 07:54:54;;;;;;;3.78;3.47;;;;;;;9.67;100.00;97929.81;6578574;27;34035;-85
2022/04/01 07:57:57;;;;;;;5.97;3.80;;;;;;;9.54;100.00;97933.53;6579460;27;33897;-85
2022/04/01 08:01:22;;;;;;;4.25;3.53;;;;;;;9.58;100.00;97930.38;6578981;27;33605;-85
2022/04/01 08:04:26;;;;;;;5.40;3.75;;;;;;;9.56;100.00;97932.47;6579072;27;33502;-86
2022/04/01 08:07:29;;;;;;;5.60;4.90;;;;;;;9.51;100.00;97934.00;6578736;27;34490;-85
2022/04/01 08:10:33;;;;;;;6.05;4.75;;;;;;;9.50;100.00;97940.41;6578652;27;33950;-84
2022/04/01 08:13:36;;;;;;;5.32;4.65;;;;;;;9.54;100.00;97946.97;6577607;27;33695;-85
2022/04/01 08:16:39;;;;;;;6.18;4.50;;;;;;;9.45;100.00;97944.84;6577238;27;33946;-84
2022/04/01 08:19:43;;;;;;;5.25;4.50;;;;;;;9.40;100.00;97952.78;6578033;27;34702;-85
2022/04/01 08:22:46;;;;;;;5.40;4.45;;;;;;;9.28;100.00;97958.13;6578238;27;34488;-83
2022/04/01 08:25:53;;;;;;;7.07;4.30;;;;;;;9.23;100.00;97969.53;6558299;27;32072;-85
2022/04/01 08:28:56;;;;;;;6.15;4.37;;;;;;;9.18;100.00;97961.34;6578402;27;34423;-84
2022/04/01 08:32:00;;;;;;;5.70;3.78;;;;;;;9.22;100.00;97972.44;6581955;27;33486;-84
2022/04/01 08:35:07;;;;;;;5.28;3.80;;;;;;;9.11;100.00;97960.63;6580934;27;34465;-82
2022/04/01 08:38:10;;;;;;;6.22;3.80;;;;;;;9.14;100.00;97960.16;6578220;27;33912;-84
2022/04/01 08:41:19;;;;;;;3.55;3.25;;;;;;;9.20;100.00;97972.66;6577126;27;33592;-83
2022/04/01 08:44:22;;;;;;;4.07;3.45;;;;;;;9.17;100.00;97978.50;6576608;27;33622;-82
2022/04/01 08:47:26;;;;;;;4.10;3.65;;;;;;;9.05;100.00;97985.69;6576742;27;33812;-83
2022/04/01 08:50:29;;;;;;;4.78;3.65;;;;;;;9.05;100.00;97991.06;6577693;27;33679;-82
2022/04/01 08:53:37;;;;;;;6.05;3.70;;;;;;;8.82;100.00;97997.94;6577810;27;34148;-82
2022/04/01 08:56:40;;;;;;;6.22;3.75;;;;;;;8.74;100.00;98006.28;6577089;27;33420;-83
2022/04/01 08:59:43;;;;;;;4.35;3.90;;;;;;;8.65;100.00;98002.25;6557464;27;32180;-82
2022/04/01 09:02:58;;;;;;;6.57;4.62;;;;;;;8.65;100.00;98007.62;6578277;27;33880;-82
2022/04/01 09:06:04;;;;;;;6.32;4.60;;;;;;;8.69;100.00;98008.84;6577695;27;33611;-85
2022/04/01 09:09:21;;;;;;;4.30;3.75;;;;;;;8.70;100.00;98002.41;6591518;27;34280;-85
2022/04/01 09:12:25;;;;;;;4.75;3.83;;;;;;;8.75;100.00;98007.94;6583928;27;34222;-82
2022/04/01 09:15:48;;;;;;;3.50;2.92;;;;;;;8.76;100.00;98008.75;6577287;27;34763;-81
2022/04/01 09:18:54;;;;;;;3.20;2.80;;;;;;;9.03;100.00;98010.06;6583607;27;34965;-83
2022/04/01 09:21:57;;;;;;;3.45;2.70;;;;;;;9.12;100.00;98012.44;6581976;27;34346;-81
2022/04/01 09:25:05;;;;;;;4.07;2.20;;;;;;;9.31;100.00;98008.66;6577141;27;33890;-82
2022/04/01 09:28:08;;;;;;;3.53;2.00;;;;;;;9.32;100.00;98012.97;6576611;27;33593;-82
2022/04/01 09:31:15;;;;;;;1.73;1.62;;;;;;;9.35;100.00;98011.72;6576224;27;33959;-82
2022/04/01 09:34:40;;;;;;;3.17;2.08;;;;;;;9.19;100.00;98011.31;6577202;27;33940;-83
2022/04/01 09:37:48;;;;;;;4.00;1.92;;;;;;;9.12;100.00;98013.25;6579246;27;33601;-83
2022/04/01 09:40:53;;;;;;;2.30;2.10;;;;;;;9.13;100.00;98022.97;6584898;27;34324;-83
2022/04/01 09:44:13;;;;;;;2.45;2.00;;;;;;;9.30;100.00;98015.91;6577847;27;33954;-82
2022/04/01 09:47:19;;;;;;;1.98;1.30;;;;;;;9.34;100.00;98015.47;6577858;27;34390;-83
2022/04/01 09:50:27;;;;;;;2.20;1.90;;;;;;;9.42;100.00;98029.38;6578174;27;35235;-82
2022/04/01 09:53:33;;;;;;;2.08;1.98;;;;;;;9.36;100.00;98021.41;6578223;27;34667;-83
2022/04/01 09:56:42;;;;;;;3.75;2.60;;;;;;;9.29;100.00;98022.31;6576974;27;33673;-83
2022/04/01 09:59:47;;;;;;;3.40;3.10;;;;;;;9.17;100.00;98026.81;6577408;27;34035;-86
2022/04/01 10:02:51;;;;;;;2.97;2.47;;;;;;;9.04;100.00;98032.38;6578262;27;34106;-87
2022/04/01 10:05:56;;;;;;;4.18;3.10;;;;;;;9.08;100.00;98034.34;6580426;27;34179;-87
2022/04/01 10:09:05;;;;;;;3.75;3.45;;;;;;;9.03;100.00;98044.13;6578535;27;34055;-83
2022/04/01 10:12:11;;;;;;;4.12;3.40;;;;;;;8.88;100.00;98043.69;6579598;27;35162;-83
2022/04/01 10:15:15;;;;;;;3.35;3.05;;;;;;;8.93;100.00;98043.84;6577843;27;35783;-83
2022/04/01 10:18:31;;;;;;;3.50;3.20;;;;;;;9.06;100.00;98041.00;6576160;27;34331;-83
2022/04/01 10:21:36;;;;;;;5.93;3.72;;;;;;;8.97;100.00;98039.66;6578025;27;33712;-83
2022/04/01 10:24:46;;;;;;;6.25;3.33;;;;;;;9.06;100.00;98038.31;6576996;27;33998;-83
2022/04/01 10:27:51;;;;;;;4.75;3.78;;;;;;;9.03;100.00;98057.56;6581355;27;34881;-83
2022/04/01 10:30:57;;;;;;;4.20;3.80;;;;;;;8.76;100.00;98055.16;6584863;27;34150;-83
2022/04/01 10:34:44;;;;;;;4.60;4.10;;;;;;;8.52;100.00;98056.06;6584633;27;34316;-83
2022/04/01 10:37:53;;;;;;;4.90;4.43;;;;;;;8.51;100.00;98063.28;6557192;27;34158;-83
2022/04/01 10:41:12;;;;;;;4.90;4.43;;;;;;;8.88;100.00;98071.34;6588889;27;34263;-83
2022/04/01 10:44:16;;;;;;;5.18;4.68;;;;;;;8.68;100.00;98073.41;6591323;27;34113;-83
2022/04/01 10:47:22;;;;;;;5.75;4.68;;;;;;;8.84;100.00;98070.16;6591915;27;34106;-84
2022/04/01 10:53:48;;;;;;;4.87;3.90;;;;;;;9.12;100.00;98074.16;6590625;27;35467;-84
2022/04/01 10:57:05;;;;;;;5.15;4.20;;;;;;;9.14;98.62;98072.91;6582203;27;35200;-84
2022/04/01 11:00:14;;;;;;;5.87;3.87;;;;;;;9.05;98.74;98072.37;6577715;27;34669;-84
2022/04/01 11:03:24;;;;;;;5.40;4.10;;;;;;;9.02;97.93;98083.56;6578896;27;35739;-84
2022/04/01 11:06:27;;;;;;;5.70;3.90;;;;;;;9.24;100.00;98088.47;6577456;27;34020;-84
2022/04/01 11:09:40;;;;;;;4.20;3.80;;;;;;;8.93;98.63;98089.47;6578558;27;33423;-84
2022/04/01 11:12:50;;;;;;;4.85;3.83;;;;;;;8.91;100.00;98081.63;6578236;27;34878;-84
2022/04/01 11:16:11;;;;;;;7.78;4.75;;;;;;;9.14;100.00;98090.88;6577796;27;34198;-84
2022/04/01 11:19:27;;;;;;;6.43;5.05;;;;;;;9.08;99.57;98095.28;6578751;27;33624;-83
2022/04/01 11:22:53;;;;;;;8.13;5.68;;;;;;;8.92;100.00;98095.87;6579543;27;34527;-84
2022/04/01 11:25:58;;;;;;;5.82;4.72;;;;;;;8.88;100.00;98094.69;6585220;27;33861;-83
2022/04/01 11:29:01;;;;;;;6.43;4.97;;;;;;;9.08;100.00;98103.31;6582858;27;33824;-83
2022/04/01 11:32:08;;;;;;;7.18;5.45;;;;;;;8.97;100.00;98098.69;6578110;27;33619;-84
2022/04/01 11:35:13;;;;;;;6.32;5.00;;;;;;;8.93;100.00;98098.34;6578490;27;34352;-83
2022/04/01 11:38:21;;;;;;;7.53;5.87;;;;;;;8.65;100.00;98104.19;6578198;27;35187;-84
2022/04/01 11:41:24;;;;;;;6.25;5.57;;;;;;;8.87;100.00;98099.22;6578893;27;33720;-88
2022/04/01 11:44:27;;;;;;;6.78;5.28;;;;;;;8.88;100.00;98106.22;6576888;27;35126;-89
2022/04/01 11:47:35;;;;;;;6.93;5.53;;;;;;;8.78;100.00;98103.25;6578443;27;34836;-88
2022/04/01 11:50:43;;;;;;;6.90;5.95;;;;;;;8.68;100.00;98103.75;6579136;27;33638;-84
2022/04/01 11:53:50;;;;;;;8.20;5.70;;;;;;;8.62;100.00;98096.59;6582162;27;33845;-84
2022/04/01 11:56:53;;;;;;;6.10;5.45;;;;;;;8.45;100.00;98100.88;6578614;27;34033;-84
2022/04/01 12:00:00;;;;;;;7.90;6.30;;;;;;;8.40;100.00;98104.22;6578874;27;33875;-84
2022/04/01 12:03:20;;;;;;;8.18;6.87;;;;;;;8.57;100.00;98096.41;6579463;27;34828;-84
2022/04/01 12:09:45;;;;;;;9.52;6.78;;;;;;;8.47;100.00;98099.62;6579057;27;34593;-84
2022/04/01 12:12:56;;;;;;;8.75;6.60;;;;;;;8.48;100.00;98111.16;6583621;27;34394;-84
2022/04/01 12:15:59;;;;;;;9.65;7.35;;;;;;;8.45;100.00;98103.56;6599918;27;34359;-84
2022/04/01 12:19:02;;;;;;;8.75;7.15;;;;;;;8.66;99.05;98105.84;6584522;27;34060;-84
2022/04/01 12:22:08;;;;;;;9.23;7.80;;;;;;;8.96;98.62;98118.53;6578326;27;33917;-84
2022/04/01 12:25:12;;;;;;;8.43;7.22;;;;;;;9.47;97.26;98122.69;6577671;27;34776;-84
2022/04/01 12:28:16;;;;;;;8.27;7.43;;;;;;;9.71;92.45;98119.06;6578521;27;33737;-84
2022/04/01 12:31:23;;;;;;;7.72;6.93;;;;;;;9.40;94.35;98121.97;6577622;27;34681;-84
2022/04/01 12:34:27;;;;;;;7.60;6.37;;;;;;;9.61;93.23;98128.72;6580544;27;35187;-84
2022/04/01 12:37:30;;;;;;;7.50;6.03;;;;;;;10.01;89.76;98128.16;6583425;27;34171;-84
2022/04/01 12:40:45;;;;;;;8.20;5.68;;;;;;;10.20;88.29;98125.16;6582608;27;34554;-84
2022/04/01 12:43:49;;;;;;;7.12;5.20;;;;;;;10.66;87.24;98131.69;6579324;27;33641;-85
2022/04/01 12:46:54;;;;;;;8.07;5.75;;;;;;;10.04;86.33;98135.78;6578883;27;35502;-85
2022/04/01 12:49:57;;;;;;;7.75;6.20;;;;;;;9.76;87.87;98138.00;6588555;27;33585;-85
2022/04/01 12:53:10;;;;;;;7.72;5.90;;;;;;;9.33;89.61;98140.84;6592208;27;34212;-85
2022/04/01 12:56:18;;;;;;;8.82;6.12;;;;;;;9.17;90.15;98146.81;6578679;27;35362;-89
2022/04/01 12:59:22;;;;;;;11.23;7.78;;;;;;;8.94;91.13;98153.62;6581512;27;34304;-86
2022/04/01 13:02:30;;;;;;;9.80;7.45;;;;;;;8.73;92.53;98149.50;6592458;27;34549;-86
2022/04/01 13:05:33;;;;;;;11.52;8.88;;;;;;;8.61;92.90;98153.97;6593536;27;35274;-86
2022/04/01 13:08:36;;;;;;;11.07;9.18;;;;;;;8.63;92.50;98159.94;6582207;26;33979;-85
2022/04/01 13:11:42;;;;;;;14.02;9.10;;;;;;;8.56;95.02;98159.97;6583687;27;35297;-86
2022/04/01 13:14:45;;;;;;;12.10;9.68;;;;;;;8.59;95.61;98169.44;6585816;27;34023;-86
2022/04/01 13:17:59;;;;;;;12.70;9.73;;;;;;;8.58;92.64;98162.44;6579332;27;34212;-86
2022/04/01 13:21:03;;;;;;;13.20;10.85;;;;;;;8.58;92.70;98160.59;6576486;27;34342;-86
2022/04/01 13:24:06;;;;;;;12.85;10.15;;;;;;;8.87;93.49;98163.63;6578041;27;34690;-86
2022/04/01 13:27:12;;;;;;;16.27;10.52;;;;;;;9.06;90.10;98161.78;6579059;27;33976;-86
2022/04/01 13:30:17;;;;;;;15.05;11.65;;;;;;;9.06;92.02;98167.13;6584682;27;33730;-86
2022/04/01 13:33:22;;;;;;;14.10;9.45;;;;;;;9.00;91.02;98170.72;6579641;27;34143;-86
2022/04/01 13:36:25;;;;;;;12.57;10.00;;;;;;;8.92;90.25;98177.22;6578265;27;34367;-86
2022/04/01 13:39:28;;;;;;;13.48;11.00;;;;;;;9.03;89.21;98181.00;6578080;27;33958;-85
2022/04/01 13:42:32;;;;;;;15.32;9.70;;;;;;;9.07;89.16;98177.66;6577757;27;33505;-85
2022/04/01 13:45:39;;;;;;;13.48;10.60;;;;;;;9.13;89.85;98178.66;6578225;27;34754;-86
2022/04/01 13:48:42;;;;;;;13.88;10.25;;;;;;;9.44;89.05;98176.84;6577714;27;34439;-85
2022/04/01 13:51:49;;;;;;;15.65;10.93;;;;;;;9.56;86.28;98172.34;6577906;27;34165;-86
2022/04/01 13:54:52;;;;;;;12.70;10.13;;;;;;;9.48;87.95;98170.00;6579906;27;33785;-86
2022/04/01 13:57:58;;;;;;;16.02;11.48;;;;;;;9.71;86.57;98166.59;6578757;27;34106;-85
2022/04/01 14:01:01;;;;;;;16.45;12.25;;;;;;;9.53;84.28;98162.91;6578005;27;34143;-86
2022/04/01 14:04:05;;;;;;;14.80;11.82;;;;;;;9.26;85.56;98165.06;6578026;27;33716;-86
2022/04/01 14:07:10;;;;;;;19.20;10.90;;;;;;;9.45;85.90;98167.75;6580240;27;35334;-86
2022/04/01 14:10:16;;;;;;;15.07;11.80;;;;;;;9.34;84.87;98173.88;6564090;27;34112;-86
2022/04/01 14:13:22;;;;;;;16.00;12.30;;;;;;;9.28;86.63;98181.78;6582762;27;33857;-86
2022/04/01 14:16:46;;;;;;;15.90;12.05;;;;;;;9.15;87.06;98184.59;6590429;27;33961;-86
2022/04/01 14:19:49;;;;;;;16.98;12.45;;;;;;;9.15;86.94;98189.16;6584040;26;34294;-90
2022/04/01 14:22:52;;;;;;;18.27;14.23;;;;;;;9.17;87.15;98190.56;6578428;27;33534;-90
2022/04/01 14:25:56;;;;;;;18.35;12.88;;;;;;;9.20;85.50;98211.59;6578658;27;34613;-90
2022/04/01 14:30:16;;;;;;;17.70;14.13;;;;;;;8.95;86.60;98210.81;6578272;27;33875;-86
2022/04/01 14:32:22;;;;;;;17.40;14.18;;;;;;;8.62;88.01;98210.06;6577852;27;34042;-86
2022/04/01 14:35:27;;;;;;;17.50;13.15;;;;;;;8.52;89.16;98207.06;6579521;27;34109;-86
2022/04/01 14:38:30;;;;;;;19.42;14.95;;;;;;;8.48;89.08;98213.91;6577907;27;34257;-85
2022/04/01 14:41:48;;;;;;;20.37;13.98;;;;;;;8.74;88.19;98215.53;6577781;27;35440;-86
2022/04/01 14:44:51;;;;;;;18.60;13.45;;;;;;;8.80;86.21;98220.03;6578516;27;34395;-86
2022/04/01 14:47:54;;;;;;;22.52;14.65;;;;;;;8.76;86.64;98226.06;6578663;27;33933;-86
2022/04/01 14:50:57;;;;;;;17.33;12.75;;;;;;;8.99;88.06;98236.19;6579598;27;34526;-86
2022/04/01 14:54:01;;;;;;;17.92;14.27;;;;;;;9.09;85.30;98231.94;6580407;27;33812;-86
2022/04/01 14:57:04;;;;;;;17.80;13.90;;;;;;;8.99;85.49;98237.00;6584301;27;35488;-86
2022/04/01 15:00:09;;;;;;;17.10;12.65;;;;;;;8.91;84.37;98242.63;6591123;27;35162;-86
2022/04/01 15:03:16;;;;;;;18.58;13.32;;;;;;;8.82;86.95;98241.28;6591950;27;35281;-86
2022/04/01 15:06:21;;;;;;;18.73;14.13;;;;;;;8.84;87.54;98234.66;6598002;27;34065;-86
2022/04/01 15:09:24;;;;;;;17.50;13.80;;;;;;;9.04;85.91;98237.16;6597775;27;34469;-86
2022/04/01 15:12:27;;;;;;;17.00;13.40;;;;;;;9.18;86.14;98237.84;6584423;27;35338;-86
2022/04/01 15:15:30;;;;;;;16.55;12.60;;;;;;;9.08;84.12;98234.84;6579166;27;34180;-86
2022/04/01 15:18:38;;;;;;;19.08;13.90;;;;;;;9.07;83.98;98242.09;6579079;27;34646;-86
2022/04/01 15:21:42;;;;;;;18.40;13.80;;;;;;;9.01;85.63;98237.59;6579478;27;34020;-86
2022/04/01 15:24:45;;;;;;;18.90;14.43;;;;;;;8.89;83.30;98244.72;6579097;27;34442;-86
2022/04/01 15:27:48;;;;;;;19.23;15.18;;;;;;;8.59;85.99;98252.59;6579215;27;33836;-86
2022/04/01 15:30:51;;;;;;;18.98;15.32;;;;;;;8.57;85.81;98249.28;6584054;27;33852;-86
2022/04/01 15:33:54;;;;;;;19.30;15.35;;;;;;;8.46;86.54;98256.19;6581168;27;34764;-86
